createdAt,value
2019-05-28T00:00:56.544Z,99.99
2019-05-28T00:01:46.282Z,99.99
2019-05-28T00:02:46.245Z,99.99
2019-05-28T00:03:46.272Z,99.99
2019-05-28T00:04:46.253Z,99.99
2019-05-28T00:05:46.522Z,99.99
2019-05-28T00:06:46.304Z,99.99
2019-05-28T00:07:46.347Z,99.99
2019-05-28T00:08:46.255Z,99.99
2019-05-28T00:09:46.243Z,99.99
2019-05-28T00:10:46.248Z,99.99
2019-05-28T00:11:46.295Z,99.99
2019-05-28T00:12:46.268Z,99.99
2019-05-28T00:13:46.269Z,99.99
2019-05-28T00:14:46.304Z,99.99
2019-05-28T00:15:46.282Z,99.99
2019-05-28T00:16:46.291Z,99.99
2019-05-28T00:17:49.474Z,99.99
2019-05-28T00:18:46.301Z,99.99
2019-05-28T00:19:46.327Z,99.99
2019-05-28T00:20:46.355Z,99.99
2019-05-28T00:21:46.262Z,99.99
2019-05-28T00:22:46.310Z,99.99
2019-05-28T00:23:46.294Z,99.99
2019-05-28T00:24:46.321Z,99.99
2019-05-28T00:25:46.287Z,99.99
2019-05-28T00:26:46.292Z,99.99
2019-05-28T00:27:46.282Z,99.99
2019-05-28T00:28:46.286Z,99.99
2019-05-28T00:29:46.337Z,99.99
2019-05-28T00:30:55.432Z,99.99
2019-05-28T00:31:46.315Z,99.99
2019-05-28T00:32:46.298Z,99.99
2019-05-28T00:33:46.296Z,99.99
2019-05-28T00:34:46.318Z,99.99
2019-05-28T00:35:46.304Z,99.99
2019-05-28T00:36:46.289Z,99.99
2019-05-28T00:37:46.333Z,99.99
2019-05-28T00:38:46.304Z,99.99
2019-05-28T00:39:46.348Z,99.99
2019-05-28T00:40:46.703Z,99.99
2019-05-28T00:41:46.300Z,99.99
2019-05-28T00:42:46.345Z,99.99
2019-05-28T00:43:46.314Z,99.99
2019-05-28T00:44:46.341Z,99.99
2019-05-28T00:45:46.354Z,99.99
2019-05-28T00:46:46.623Z,99.99
2019-05-28T00:47:46.399Z,99.99
2019-05-28T00:48:46.327Z,99.99
2019-05-28T00:49:49.405Z,99.99
2019-05-28T00:50:46.343Z,99.99
2019-05-28T00:51:46.694Z,99.99
2019-05-28T00:52:46.337Z,99.99
2019-05-28T00:53:46.375Z,99.99
2019-05-28T00:54:46.401Z,99.99
2019-05-28T00:55:46.376Z,99.99
2019-05-28T00:56:46.447Z,99.99
2019-05-28T00:57:46.362Z,99.99
2019-05-28T00:58:46.353Z,99.99
2019-05-28T00:59:46.394Z,99.99
2019-05-28T01:00:55.417Z,99.99
2019-05-28T01:01:46.366Z,99.99
2019-05-28T01:02:46.356Z,99.99
2019-05-28T01:03:46.364Z,99.99
2019-05-28T01:04:46.473Z,99.99
2019-05-28T01:05:46.411Z,99.99
2019-05-28T01:06:46.622Z,99.99
2019-05-28T01:07:46.362Z,99.99
2019-05-28T01:08:46.379Z,99.99
2019-05-28T01:09:46.461Z,99.99
2019-05-28T01:10:46.387Z,99.99
2019-05-28T01:11:46.411Z,99.99
2019-05-28T01:12:46.384Z,99.99
2019-05-28T01:13:46.342Z,99.99
2019-05-28T01:14:46.495Z,99.99
2019-05-28T01:15:46.398Z,99.99
2019-05-28T01:16:46.431Z,99.99
2019-05-28T01:17:46.452Z,99.99
2019-05-28T01:18:46.398Z,99.99
2019-05-28T01:19:46.385Z,99.99
2019-05-28T01:20:46.389Z,99.99
2019-05-28T01:21:46.376Z,99.99
2019-05-28T01:22:46.444Z,99.99
2019-05-28T01:23:46.406Z,99.99
2019-05-28T01:24:46.398Z,99.99
2019-05-28T01:25:46.428Z,99.99
2019-05-28T01:26:46.408Z,99.99
2019-05-28T01:27:46.398Z,99.99
2019-05-28T01:28:46.508Z,99.99
2019-05-28T01:29:46.448Z,99.99
2019-05-28T01:31:00.242Z,99.99
2019-05-28T01:31:46.383Z,99.99
2019-05-28T01:32:46.437Z,99.99
2019-05-28T01:33:46.436Z,99.99
2019-05-28T01:34:46.444Z,99.99
2019-05-28T01:35:46.427Z,99.99
2019-05-28T01:36:46.475Z,99.99
2019-05-28T01:37:46.404Z,99.99
2019-05-28T01:38:46.426Z,99.99
2019-05-28T01:39:46.439Z,99.99
2019-05-28T01:40:46.439Z,99.99
2019-05-28T01:41:46.428Z,99.99
2019-05-28T01:42:46.437Z,99.99
2019-05-28T01:43:46.429Z,99.99
2019-05-28T01:44:46.426Z,99.99
2019-05-28T01:45:46.454Z,99.99
2019-05-28T01:46:46.422Z,99.99
2019-05-28T01:47:46.488Z,99.99
2019-05-28T01:48:46.432Z,99.99
2019-05-28T01:49:46.460Z,99.99
2019-05-28T01:50:46.454Z,99.99
2019-05-28T01:51:46.482Z,99.99
2019-05-28T01:52:46.487Z,99.99
2019-05-28T01:53:46.507Z,99.99
2019-05-28T01:54:46.839Z,99.99
2019-05-28T01:55:46.465Z,99.99
2019-05-28T01:56:46.468Z,99.99
2019-05-28T01:57:46.505Z,99.99
2019-05-28T01:58:46.463Z,99.99
2019-05-28T01:59:46.467Z,99.99
2019-05-28T02:00:46.471Z,99.99
2019-05-28T02:01:46.484Z,99.99
2019-05-28T02:02:46.650Z,99.99
2019-05-28T02:03:46.470Z,99.99
2019-05-28T02:04:46.641Z,99.99
2019-05-28T02:05:46.525Z,99.99
2019-05-28T02:06:46.450Z,99.99
2019-05-28T02:07:46.516Z,99.99
2019-05-28T02:08:46.442Z,99.99
2019-05-28T02:09:46.449Z,99.99
2019-05-28T02:10:46.537Z,99.99
2019-05-28T02:11:46.480Z,99.99
2019-05-28T02:12:46.527Z,99.99
2019-05-28T02:13:46.493Z,99.99
2019-05-28T02:14:46.498Z,99.99
2019-05-28T02:15:46.490Z,99.99
2019-05-28T02:16:46.471Z,99.99
2019-05-28T02:17:46.480Z,99.99
2019-05-28T02:18:46.485Z,99.99
2019-05-28T02:19:46.493Z,99.99
2019-05-28T02:20:46.496Z,99.99
2019-05-28T02:21:46.489Z,99.99
2019-05-28T02:22:46.536Z,99.99
2019-05-28T02:23:46.496Z,99.99
2019-05-28T02:24:46.523Z,99.99
2019-05-28T02:25:46.507Z,99.99
2019-05-28T02:26:46.578Z,99.99
2019-05-28T02:27:46.645Z,99.99
2019-05-28T02:28:46.494Z,99.99
2019-05-28T02:29:46.476Z,99.99
2019-05-28T02:30:46.506Z,99.99
2019-05-28T02:31:46.514Z,99.99
2019-05-28T02:32:46.518Z,99.99
2019-05-28T02:33:46.527Z,99.99
2019-05-28T02:34:46.510Z,99.99
2019-05-28T02:35:46.537Z,99.99
2019-05-28T02:36:46.531Z,99.99
2019-05-28T02:37:46.538Z,99.99
2019-05-28T02:38:46.558Z,99.99
2019-05-28T02:39:46.550Z,99.99
2019-05-28T02:40:46.550Z,99.99
2019-05-28T02:41:46.538Z,99.99
2019-05-28T02:42:46.544Z,99.99
2019-05-28T02:43:46.560Z,99.99
2019-05-28T02:44:46.523Z,99.99
2019-05-28T02:45:46.855Z,99.99
2019-05-28T02:46:46.536Z,99.99
2019-05-28T02:47:46.561Z,99.99
2019-05-28T02:48:46.530Z,99.99
2019-05-28T02:49:46.569Z,99.99
2019-05-28T02:50:46.541Z,99.99
2019-05-28T02:51:46.825Z,99.99
2019-05-28T02:52:46.554Z,99.99
2019-05-28T02:53:46.534Z,99.99
2019-05-28T02:54:46.567Z,99.99
2019-05-28T02:55:46.535Z,99.99
2019-05-28T02:56:46.533Z,99.99
2019-05-28T02:57:46.573Z,99.99
2019-05-28T02:58:46.555Z,99.99
2019-05-28T02:59:46.556Z,99.99
2019-05-28T03:00:46.544Z,99.99
2019-05-28T03:01:47.734Z,99.99
2019-05-28T03:02:46.533Z,99.99
2019-05-28T03:03:46.602Z,99.99
2019-05-28T03:04:46.549Z,99.99
2019-05-28T03:05:46.534Z,99.99
2019-05-28T03:06:46.556Z,99.99
2019-05-28T03:07:46.630Z,99.99
2019-05-28T03:08:46.586Z,99.99
2019-05-28T03:09:46.581Z,99.99
2019-05-28T03:11:06.184Z,99.99
2019-05-28T03:11:46.549Z,99.99
2019-05-28T03:12:46.772Z,99.99
2019-05-28T03:13:46.560Z,99.99
2019-05-28T03:14:46.588Z,99.99
2019-05-28T03:15:46.901Z,99.99
2019-05-28T03:16:46.602Z,99.99
2019-05-28T03:17:46.606Z,99.99
2019-05-28T03:18:46.573Z,99.99
2019-05-28T03:19:46.601Z,99.99
2019-05-28T03:20:46.614Z,99.99
2019-05-28T03:21:46.596Z,99.99
2019-05-28T03:22:46.620Z,99.99
2019-05-28T03:23:46.571Z,99.99
2019-05-28T03:24:46.600Z,99.99
2019-05-28T03:25:46.606Z,99.99
2019-05-28T03:26:46.646Z,99.99
2019-05-28T03:27:46.636Z,99.99
2019-05-28T03:28:46.588Z,99.99
2019-05-28T03:29:46.583Z,99.99
2019-05-28T03:30:46.618Z,99.99
2019-05-28T03:32:09.318Z,99.99
2019-05-28T03:32:46.689Z,99.99
2019-05-28T03:33:46.658Z,99.99
2019-05-28T03:34:46.583Z,99.99
2019-05-28T03:35:46.687Z,99.99
2019-05-28T03:36:46.642Z,99.99
2019-05-28T03:37:46.686Z,99.99
2019-05-28T03:38:46.632Z,99.99
2019-05-28T03:39:46.660Z,99.99
2019-05-28T03:40:46.605Z,99.99
2019-05-28T03:41:46.649Z,99.99
2019-05-28T03:42:46.634Z,99.99
2019-05-28T03:43:46.621Z,99.99
2019-05-28T03:44:46.629Z,99.99
2019-05-28T03:45:46.944Z,99.99
2019-05-28T03:46:46.622Z,99.99
2019-05-28T03:47:46.668Z,99.99
2019-05-28T03:48:46.635Z,99.99
2019-05-28T03:49:46.647Z,99.99
2019-05-28T03:50:46.653Z,99.99
2019-05-28T03:51:46.653Z,99.99
2019-05-28T03:52:46.697Z,99.99
2019-05-28T03:53:46.692Z,99.99
2019-05-28T03:54:46.674Z,99.99
2019-05-28T03:55:46.678Z,99.99
2019-05-28T03:56:46.746Z,99.99
2019-05-28T03:57:46.658Z,99.99
2019-05-28T03:58:46.643Z,99.99
2019-05-28T03:59:46.687Z,99.99
2019-05-28T04:00:46.669Z,99.99
2019-05-28T04:01:46.746Z,99.99
2019-05-28T04:02:46.676Z,99.99
2019-05-28T04:03:46.680Z,99.99
2019-05-28T04:04:46.659Z,99.99
2019-05-28T04:05:46.684Z,99.99
2019-05-28T04:06:46.661Z,99.99
2019-05-28T04:07:46.722Z,99.99
2019-05-28T04:08:46.648Z,99.99
2019-05-28T04:09:46.673Z,99.99
2019-05-28T04:10:46.640Z,99.99
2019-05-28T04:11:47.933Z,99.99
2019-05-28T04:12:46.751Z,99.99
2019-05-28T04:13:46.705Z,99.99
2019-05-28T04:14:46.675Z,99.99
2019-05-28T04:15:46.667Z,99.99
2019-05-28T04:16:46.655Z,99.99
2019-05-28T04:17:46.703Z,99.99
2019-05-28T04:18:46.674Z,99.99
2019-05-28T04:19:46.901Z,99.99
2019-05-28T04:20:46.688Z,99.99
2019-05-28T04:21:46.713Z,99.99
2019-05-28T04:22:46.758Z,99.99
2019-05-28T04:23:46.682Z,99.99
2019-05-28T04:24:46.711Z,99.99
2019-05-28T04:25:46.715Z,99.99
2019-05-28T04:26:46.681Z,99.99
2019-05-28T04:27:46.752Z,99.99
2019-05-28T04:28:46.701Z,99.99
2019-05-28T04:29:46.681Z,99.99
2019-05-28T04:30:46.686Z,99.99
2019-05-28T04:31:46.801Z,99.99
2019-05-28T04:32:46.757Z,99.99
2019-05-28T04:33:46.727Z,99.99
2019-05-28T04:34:46.711Z,99.99
2019-05-28T04:35:46.698Z,99.99
2019-05-28T04:36:46.706Z,99.99
2019-05-28T04:37:46.730Z,99.99
2019-05-28T04:38:46.737Z,99.99
2019-05-28T04:39:46.726Z,99.99
2019-05-28T04:40:46.749Z,99.99
2019-05-28T04:41:46.701Z,99.99
2019-05-28T04:42:46.809Z,99.99
2019-05-28T04:43:46.778Z,99.99
2019-05-28T04:44:46.744Z,99.99
2019-05-28T04:45:46.741Z,99.99
2019-05-28T04:46:46.894Z,99.99
2019-05-28T04:47:46.802Z,99.99
2019-05-28T04:48:46.731Z,99.99
2019-05-28T04:49:46.746Z,99.99
2019-05-28T04:50:46.737Z,99.99
2019-05-28T04:51:46.745Z,99.99
2019-05-28T04:52:46.713Z,99.99
2019-05-28T04:53:46.716Z,99.99
2019-05-28T04:54:46.743Z,99.99
2019-05-28T04:55:46.770Z,99.99
2019-05-28T04:56:47.108Z,99.99
2019-05-28T04:57:46.721Z,99.99
2019-05-28T04:58:46.774Z,99.99
2019-05-28T04:59:46.738Z,99.99
2019-05-28T05:00:46.763Z,99.99
2019-05-28T05:01:46.754Z,99.99
2019-05-28T05:03:01.768Z,99.99
2019-05-28T05:03:46.745Z,99.99
2019-05-28T05:04:46.752Z,99.99
2019-05-28T05:05:46.781Z,99.99
2019-05-28T05:06:46.744Z,99.99
2019-05-28T05:07:46.827Z,99.99
2019-05-28T05:08:46.755Z,99.99
2019-05-28T05:09:46.762Z,99.99
2019-05-28T05:10:46.809Z,99.99
2019-05-28T05:11:46.774Z,99.99
2019-05-28T05:12:46.827Z,99.99
2019-05-28T05:13:46.766Z,99.99
2019-05-28T05:14:46.835Z,99.99
2019-05-28T05:15:49.712Z,99.99
2019-05-28T05:16:46.806Z,99.99
2019-05-28T05:17:46.813Z,99.99
2019-05-28T05:18:46.783Z,99.99
2019-05-28T05:19:46.774Z,99.99
2019-05-28T05:20:46.781Z,99.99
2019-05-28T05:21:46.801Z,99.99
2019-05-28T05:22:46.803Z,99.99
2019-05-28T05:23:46.838Z,99.99
2019-05-28T05:24:46.812Z,99.99
2019-05-28T05:25:47.160Z,99.99
2019-05-28T05:26:46.813Z,99.99
2019-05-28T05:27:46.866Z,99.99
2019-05-28T05:28:46.783Z,99.99
2019-05-28T05:29:46.776Z,99.99
2019-05-28T05:30:46.841Z,99.99
2019-05-28T05:31:46.858Z,99.99
2019-05-28T05:32:46.783Z,99.99
2019-05-28T05:33:46.807Z,99.99
2019-05-28T05:34:46.841Z,99.99
2019-05-28T05:35:46.803Z,99.99
2019-05-28T05:36:46.810Z,99.99
2019-05-28T05:37:46.860Z,99.99
2019-05-28T05:38:46.858Z,99.99
2019-05-28T05:39:48.981Z,99.99
2019-05-28T05:40:46.815Z,99.99
2019-05-28T05:41:46.837Z,99.99
2019-05-28T05:42:46.822Z,99.99
2019-05-28T05:43:46.793Z,99.99
2019-05-28T05:44:47.209Z,99.99
2019-05-28T05:45:46.865Z,99.99
2019-05-28T05:46:46.892Z,99.99
2019-05-28T05:47:46.844Z,99.99
2019-05-28T05:48:46.864Z,99.99
2019-05-28T05:49:46.858Z,99.99
2019-05-28T05:50:48.088Z,99.99
2019-05-28T05:51:46.845Z,99.99
2019-05-28T05:52:46.819Z,99.99
2019-05-28T05:53:46.826Z,99.99
2019-05-28T05:54:46.882Z,99.99
2019-05-28T05:56:05.210Z,99.99
2019-05-28T05:56:46.862Z,99.99
2019-05-28T05:57:46.842Z,99.99
2019-05-28T05:58:46.859Z,99.99
2019-05-28T05:59:46.880Z,99.99
2019-05-28T06:00:46.863Z,99.99
2019-05-28T06:01:46.853Z,99.99
2019-05-28T06:02:46.879Z,99.99
2019-05-28T06:03:46.903Z,99.99
2019-05-28T06:04:46.828Z,99.99
2019-05-28T06:05:46.925Z,99.99
2019-05-28T06:06:46.887Z,99.99
2019-05-28T06:07:47.107Z,99.99
2019-05-28T06:08:46.878Z,99.99
2019-05-28T06:09:46.904Z,99.99
2019-05-28T06:10:46.885Z,99.99
2019-05-28T06:11:46.878Z,99.99
2019-05-28T06:12:46.861Z,99.99
2019-05-28T06:13:46.911Z,99.99
2019-05-28T06:14:47.060Z,99.99
2019-05-28T06:15:46.860Z,99.99
2019-05-28T06:16:46.921Z,99.99
2019-05-28T06:17:48.164Z,99.99
2019-05-28T06:18:46.965Z,99.99
2019-05-28T06:19:46.907Z,99.99
2019-05-28T06:20:46.981Z,99.99
2019-05-28T06:21:46.856Z,99.99
2019-05-28T06:22:46.887Z,99.99
2019-05-28T06:23:47.004Z,99.99
2019-05-28T06:24:46.877Z,99.99
2019-05-28T06:25:46.887Z,99.99
2019-05-28T06:26:46.903Z,99.99
2019-05-28T06:27:46.904Z,99.99
2019-05-28T06:28:46.928Z,99.99
2019-05-28T06:29:46.993Z,99.99
2019-05-28T06:30:46.923Z,99.99
2019-05-28T06:31:47.176Z,99.99
2019-05-28T06:32:46.895Z,99.99
2019-05-28T06:33:59.260Z,99.99
2019-05-28T06:34:46.886Z,99.99
2019-05-28T06:35:46.963Z,99.99
2019-05-28T06:36:46.940Z,99.99
2019-05-28T06:37:46.949Z,99.99
2019-05-28T06:38:46.962Z,99.99
2019-05-28T06:39:46.941Z,99.99
2019-05-28T06:40:46.971Z,99.99
2019-05-28T06:41:46.894Z,99.99
2019-05-28T06:42:46.931Z,99.99
2019-05-28T06:43:46.965Z,99.99
2019-05-28T06:44:47.035Z,99.99
2019-05-28T06:45:46.918Z,99.99
2019-05-28T06:46:46.910Z,99.99
2019-05-28T06:47:48.324Z,99.99
2019-05-28T06:48:46.957Z,99.99
2019-05-28T06:49:46.975Z,99.99
2019-05-28T06:50:46.935Z,99.99
2019-05-28T06:51:46.991Z,99.99
2019-05-28T06:52:46.972Z,99.99
2019-05-28T06:53:46.935Z,99.99
2019-05-28T06:54:46.982Z,99.99
2019-05-28T06:55:46.946Z,99.99
2019-05-28T06:56:46.996Z,99.99
2019-05-28T06:57:46.959Z,99.99
2019-05-28T06:58:46.925Z,99.99
2019-05-28T06:59:46.954Z,99.99
2019-05-28T07:00:46.960Z,99.99
2019-05-28T07:01:47.746Z,99.99
2019-05-28T07:02:47.024Z,99.99
2019-05-28T07:03:46.959Z,99.99
2019-05-28T07:04:46.958Z,99.99
2019-05-28T07:05:46.944Z,99.99
2019-05-28T07:06:46.972Z,99.99
2019-05-28T07:07:47.002Z,99.99
2019-05-28T07:08:46.983Z,99.99
2019-05-28T07:09:47.036Z,99.99
2019-05-28T07:11:00.346Z,99.99
2019-05-28T07:11:46.943Z,99.99
2019-05-28T07:12:46.967Z,99.99
2019-05-28T07:13:46.978Z,99.99
2019-05-28T07:14:47.061Z,99.99
2019-05-28T07:15:46.966Z,99.99
2019-05-28T07:16:56.189Z,99.99
2019-05-28T07:17:48.296Z,99.99
2019-05-28T07:18:46.993Z,99.99
2019-05-28T07:19:46.998Z,99.99
2019-05-28T07:20:47.021Z,99.99
2019-05-28T07:21:47.012Z,99.99
2019-05-28T07:22:47.039Z,99.99
2019-05-28T07:23:47.003Z,99.99
2019-05-28T07:24:46.975Z,99.99
2019-05-28T07:25:46.993Z,99.99
2019-05-28T07:26:47.017Z,99.99
2019-05-28T07:27:47.027Z,99.99
2019-05-28T07:28:47.013Z,99.99
2019-05-28T07:29:47.019Z,99.99
2019-05-28T07:30:47.030Z,99.99
2019-05-28T07:31:47.024Z,99.99
2019-05-28T07:32:47.077Z,99.99
2019-05-28T07:33:47.015Z,99.99
2019-05-28T07:34:47.047Z,99.99
2019-05-28T07:35:49.005Z,99.99
2019-05-28T07:36:47.014Z,99.99
2019-05-28T07:37:47.030Z,99.99
2019-05-28T07:38:47.048Z,99.99
2019-05-28T07:39:47.034Z,99.99
2019-05-28T07:40:47.039Z,99.99
2019-05-28T07:41:47.069Z,99.99
2019-05-28T07:42:47.057Z,99.99
2019-05-28T07:43:47.043Z,99.99
2019-05-28T07:44:47.052Z,99.99
2019-05-28T07:45:47.061Z,99.99
2019-05-28T07:46:47.084Z,99.99
2019-05-28T07:47:47.008Z,99.99
2019-05-28T07:48:47.134Z,99.99
2019-05-28T07:49:47.059Z,99.99
2019-05-28T07:50:47.070Z,99.99
2019-05-28T07:51:47.077Z,99.99
2019-05-28T07:52:47.083Z,99.99
2019-05-28T07:53:47.044Z,99.99
2019-05-28T07:54:47.056Z,99.99
2019-05-28T07:55:47.062Z,99.99
2019-05-28T07:56:47.065Z,99.99
2019-05-28T07:57:47.051Z,99.99
2019-05-28T07:58:47.076Z,99.99
2019-05-28T07:59:47.088Z,99.99
2019-05-28T08:00:47.054Z,99.99
2019-05-28T08:01:47.227Z,99.99
2019-05-28T08:02:47.068Z,99.99
2019-05-28T08:03:47.075Z,99.99
2019-05-28T08:04:50.428Z,99.99
2019-05-28T08:05:47.067Z,99.99
2019-05-28T08:06:57.459Z,99.99
2019-05-28T08:07:47.114Z,99.99
2019-05-28T08:08:47.066Z,99.99
2019-05-28T08:09:47.079Z,99.99
2019-05-28T08:10:47.061Z,99.99
2019-05-28T08:11:47.089Z,99.99
2019-05-28T08:12:47.072Z,99.99
2019-05-28T08:13:47.064Z,99.99
2019-05-28T08:14:47.079Z,99.99
2019-05-28T08:15:47.085Z,99.99
2019-05-28T08:16:55.249Z,99.99
2019-05-28T08:17:47.145Z,99.99
2019-05-28T08:18:47.067Z,99.99
2019-05-28T08:19:47.071Z,99.99
2019-05-28T08:20:47.063Z,99.99
2019-05-28T08:21:47.181Z,99.99
2019-05-28T08:22:47.214Z,99.99
2019-05-28T08:23:47.080Z,99.99
2019-05-28T08:24:47.071Z,99.99
2019-05-28T08:25:50.303Z,99.99
2019-05-28T08:26:47.117Z,99.99
2019-05-28T08:27:47.098Z,99.99
2019-05-28T08:28:47.102Z,99.99
2019-05-28T08:29:48.406Z,99.99
2019-05-28T08:30:47.102Z,99.99
2019-05-28T08:31:47.151Z,99.99
2019-05-28T08:32:47.111Z,99.99
2019-05-28T08:33:47.077Z,99.99
2019-05-28T08:35:02.102Z,99.99
2019-05-28T08:35:47.158Z,99.99
2019-05-28T08:37:04.022Z,99.99
2019-05-28T08:37:47.166Z,99.99
2019-05-28T08:38:47.110Z,99.99
2019-05-28T08:39:47.101Z,99.99
2019-05-28T08:40:47.151Z,99.99
2019-05-28T08:41:47.131Z,99.99
2019-05-28T08:42:47.289Z,99.99
2019-05-28T08:43:47.168Z,99.99
2019-05-28T08:44:47.206Z,99.99
2019-05-28T08:45:47.179Z,99.99
2019-05-28T08:46:47.150Z,99.99
2019-05-28T08:47:47.150Z,99.99
2019-05-28T08:48:47.248Z,99.99
2019-05-28T08:49:47.167Z,99.99
2019-05-28T08:50:47.193Z,99.99
2019-05-28T08:51:47.134Z,99.99
2019-05-28T08:52:47.170Z,99.99
2019-05-28T08:53:47.127Z,99.99
2019-05-28T08:54:48.059Z,99.99
2019-05-28T08:55:47.144Z,99.99
2019-05-28T08:56:47.208Z,99.99
2019-05-28T08:57:47.136Z,99.99
2019-05-28T08:58:47.159Z,99.99
2019-05-28T08:59:47.167Z,99.99
2019-05-28T09:00:47.174Z,99.99
2019-05-28T09:01:51.818Z,99.99
2019-05-28T09:02:47.468Z,99.99
2019-05-28T09:03:47.869Z,99.49
2019-05-28T09:04:47.279Z,99.99
2019-05-28T09:05:47.173Z,99.99
2019-05-28T09:06:47.159Z,99.68
2019-05-28T09:07:47.159Z,99.68
2019-05-28T09:08:47.147Z,99.68
2019-05-28T09:09:47.256Z,99.58
2019-05-28T09:10:47.197Z,99.68
2019-05-28T09:11:47.226Z,99.25
2019-05-28T09:12:47.176Z,98.68
2019-05-28T09:13:47.629Z,98.19
2019-05-28T09:14:58.818Z,98.39
2019-05-28T09:15:47.173Z,98.53
2019-05-28T09:16:47.284Z,97.66
2019-05-28T09:17:47.207Z,97.28
2019-05-28T09:18:47.438Z,95.45
2019-05-28T09:19:47.195Z,93.54
2019-05-28T09:20:47.422Z,92.19
2019-05-28T09:21:47.214Z,92.29
2019-05-28T09:22:47.219Z,92.57
2019-05-28T09:23:47.186Z,91.95
2019-05-28T09:24:47.196Z,91.81
2019-05-28T09:25:47.217Z,91.47
2019-05-28T09:26:47.186Z,90.66
2019-05-28T09:27:47.230Z,90.6
2019-05-28T09:28:47.293Z,90.56
2019-05-28T09:29:47.182Z,91.37
2019-05-28T09:30:47.233Z,91.66
2019-05-28T09:31:51.019Z,91.28
2019-05-28T09:32:47.483Z,90.6
2019-05-28T09:33:47.211Z,90.51
2019-05-28T09:34:47.187Z,90.7
2019-05-28T09:36:09.553Z,91.28
2019-05-28T09:36:47.248Z,91.28
2019-05-28T09:37:47.236Z,90.6
2019-05-28T09:38:47.213Z,90.7
2019-05-28T09:39:47.532Z,90.51
2019-05-28T09:40:53.334Z,90.7
2019-05-28T09:41:47.389Z,90.41
2019-05-28T09:42:47.246Z,90.55
2019-05-28T09:43:47.310Z,90.7
2019-05-28T09:44:47.344Z,91.28
2019-05-28T09:45:47.262Z,90.75
2019-05-28T09:46:47.266Z,89.45
2019-05-28T09:47:47.318Z,88.87
2019-05-28T09:48:47.258Z,87.92
2019-05-28T09:49:47.224Z,87.62
2019-05-28T09:50:47.230Z,88.2
2019-05-28T09:51:47.503Z,88.82
2019-05-28T09:52:57.492Z,88.15
2019-05-28T09:53:47.521Z,87.48
2019-05-28T09:54:47.264Z,86.52
2019-05-28T09:55:47.719Z,86.13
2019-05-28T09:56:47.530Z,86.9
2019-05-28T09:57:50.665Z,86.99
2019-05-28T09:58:47.256Z,86.52
2019-05-28T09:59:47.268Z,86.22
2019-05-28T10:01:00.816Z,86.99
2019-05-28T10:01:55.802Z,87.57
2019-05-28T10:02:47.292Z,88.53
2019-05-28T10:03:47.273Z,86.94
2019-05-28T10:04:52.579Z,86.46
2019-05-28T10:06:15.975Z,86.56
2019-05-28T10:06:47.270Z,87.04
2019-05-28T10:07:47.293Z,85.31
2019-05-28T10:08:47.425Z,85.78
2019-05-28T10:09:47.309Z,85.94
2019-05-28T10:10:47.278Z,85.55
2019-05-28T10:11:47.297Z,85.98
2019-05-28T10:12:47.302Z,86.27
2019-05-28T10:13:47.273Z,85.69
2019-05-28T10:14:47.326Z,85.69
2019-05-28T10:15:47.694Z,86.69
2019-05-28T10:16:47.338Z,85.54
2019-05-28T10:17:50.637Z,85.44
2019-05-28T10:18:47.350Z,84.39
2019-05-28T10:19:47.300Z,84.67
2019-05-28T10:20:47.304Z,84.92
2019-05-28T10:21:47.264Z,85.35
2019-05-28T10:22:47.338Z,85.06
2019-05-28T10:23:47.317Z,85.16
2019-05-28T10:24:47.367Z,85.02
2019-05-28T10:25:47.310Z,84.92
2019-05-28T10:26:47.327Z,84.92
2019-05-28T10:28:02.763Z,85.78
2019-05-28T10:28:50.386Z,85.75
2019-05-28T10:29:47.524Z,85.65
2019-05-28T10:30:47.343Z,86.32
2019-05-28T10:31:55.396Z,86.18
2019-05-28T10:32:47.323Z,86.71
2019-05-28T10:33:47.373Z,87.62
2019-05-28T10:35:05.820Z,87.19
2019-05-28T10:35:47.349Z,86.61
2019-05-28T10:36:47.361Z,86.13
2019-05-28T10:37:47.418Z,86.13
2019-05-28T10:38:47.296Z,86.61
2019-05-28T10:39:47.322Z,86.28
2019-05-28T10:40:47.364Z,86.52
2019-05-28T10:41:47.923Z,86.32
2019-05-28T10:42:47.385Z,86.61
2019-05-28T10:43:47.385Z,86.71
2019-05-28T10:44:47.973Z,86.28
2019-05-28T10:45:48.343Z,86.42
2019-05-28T10:46:47.548Z,85.46
2019-05-28T10:47:47.412Z,86.32
2019-05-28T10:48:47.403Z,85.75
2019-05-28T10:49:50.806Z,84.3
2019-05-28T10:50:47.369Z,83.92
2019-05-28T10:51:47.372Z,83.86
2019-05-28T10:52:47.384Z,83.09
2019-05-28T10:53:47.388Z,82.9
2019-05-28T10:54:47.356Z,82.71
2019-05-28T10:55:47.366Z,83
2019-05-28T10:56:47.392Z,82.61
2019-05-28T10:57:47.336Z,82.61
2019-05-28T10:58:47.360Z,82.81
2019-05-28T10:59:47.346Z,83.48
2019-05-28T11:00:47.498Z,83.09
2019-05-28T11:02:47.816Z,82.81
2019-05-28T11:03:49.810Z,82.67
2019-05-28T11:04:47.560Z,83.15
2019-05-28T11:05:47.367Z,83.09
2019-05-28T11:06:54.640Z,83.83
2019-05-28T11:07:47.399Z,82.86
2019-05-28T11:08:47.431Z,81.84
2019-05-28T11:09:47.416Z,82.42
2019-05-28T11:10:47.415Z,81.75
2019-05-28T11:11:47.383Z,81.94
2019-05-28T11:12:47.441Z,82.42
2019-05-28T11:13:55.732Z,83.19
2019-05-28T11:14:47.379Z,82.81
2019-05-28T11:15:47.366Z,83.86
2019-05-28T11:16:47.437Z,84
2019-05-28T11:17:47.516Z,83.04
2019-05-28T11:18:47.409Z,83.42
2019-05-28T11:19:47.418Z,83.33
2019-05-28T11:20:47.426Z,85.35
2019-05-28T11:21:47.383Z,86.22
2019-05-28T11:22:47.396Z,86.75
2019-05-28T11:23:47.465Z,87.23
2019-05-28T11:24:47.409Z,87.81
2019-05-28T11:25:47.374Z,88.82
2019-05-28T11:26:47.400Z,89.54
2019-05-28T11:27:47.396Z,90.31
2019-05-28T11:28:47.391Z,91.61
2019-05-28T11:29:47.441Z,92.1
2019-05-28T11:30:47.431Z,93.44
2019-05-28T11:32:49.117Z,98.48
2019-05-28T11:33:47.409Z,98.58
2019-05-28T11:34:47.416Z,99.73
2019-05-28T11:35:47.417Z,99.73
2019-05-28T11:36:47.405Z,98.86
2019-05-28T11:37:47.467Z,97.61
2019-05-28T11:38:47.522Z,97.81
2019-05-28T11:39:47.428Z,98.1
2019-05-28T11:40:47.738Z,97.09
2019-05-28T11:41:49.870Z,97.86
2019-05-28T11:42:49.861Z,98.82
2019-05-28T11:43:49.846Z,98.91
2019-05-28T11:44:49.874Z,98.82
2019-05-28T11:45:49.899Z,98.72
2019-05-28T11:46:49.886Z,98.91
2019-05-28T11:47:53.580Z,99.99
2019-05-28T11:48:49.882Z,99.96
2019-05-28T11:49:49.936Z,99.87
2019-05-28T11:50:49.996Z,99.96
2019-05-28T11:51:49.914Z,98.91
2019-05-28T11:52:49.955Z,98.53
2019-05-28T11:53:49.932Z,98.53
2019-05-28T11:54:49.921Z,97.95
2019-05-28T11:55:49.886Z,97.95
2019-05-28T11:56:49.968Z,97.76
2019-05-28T11:57:50.004Z,97.56
2019-05-28T11:58:49.866Z,95.94
2019-05-28T11:59:49.995Z,92.53
2019-05-28T12:00:49.899Z,91.14
2019-05-28T12:01:49.954Z,90.37
2019-05-28T12:02:49.897Z,90.75
2019-05-28T12:03:49.961Z,90.22
2019-05-28T12:04:49.894Z,90.8
2019-05-28T12:05:49.918Z,90.18
2019-05-28T12:06:49.899Z,89.51
2019-05-28T12:07:53.549Z,89.7
2019-05-28T12:08:49.916Z,90.56
2019-05-28T12:09:49.946Z,90.08
2019-05-28T12:10:49.949Z,90.47
2019-05-28T12:11:49.897Z,90.37
2019-05-28T12:12:49.941Z,90.37
2019-05-28T12:13:50.003Z,90.56
2019-05-28T12:14:49.936Z,90.47
2019-05-28T12:15:49.922Z,90.66
2019-05-28T12:16:50.366Z,91.05
2019-05-28T12:17:49.929Z,91.42
2019-05-28T12:18:49.939Z,90.95
2019-05-28T12:19:49.969Z,91.91
2019-05-28T12:20:49.998Z,91.42
2019-05-28T12:21:49.966Z,91.81
2019-05-28T12:23:06.916Z,91.72
2019-05-28T12:23:49.954Z,92.24
2019-05-28T12:24:49.956Z,92.14
2019-05-28T12:25:49.951Z,91.66
2019-05-28T12:26:50.108Z,91.57
2019-05-28T12:27:49.919Z,91.47
2019-05-28T12:28:49.967Z,91.86
2019-05-28T12:29:54.787Z,90.7
2019-05-28T12:30:49.942Z,89.75
2019-05-28T12:31:49.981Z,89.07
2019-05-28T12:32:49.991Z,88.21
2019-05-28T12:33:49.940Z,88.54
2019-05-28T12:34:50.048Z,86.62
2019-05-28T12:35:50.009Z,86.05
2019-05-28T12:36:49.933Z,86.05
2019-05-28T12:37:53.013Z,85.37
2019-05-28T12:38:50.026Z,84.89
2019-05-28T12:39:49.962Z,84.89
2019-05-28T12:40:51.329Z,85.28
2019-05-28T12:42:07.095Z,84.12
2019-05-28T12:42:49.957Z,84.22
2019-05-28T12:43:49.996Z,85.18
2019-05-28T12:45:08.172Z,84.89
2019-05-28T12:45:50.055Z,84.31
2019-05-28T12:46:50.010Z,84.6
2019-05-28T12:48:12.779Z,84.99
2019-05-28T12:48:49.969Z,84.6
2019-05-28T12:49:50.028Z,84.89
2019-05-28T12:50:50.004Z,84.7
2019-05-28T12:51:49.990Z,83.54
2019-05-28T12:52:50.512Z,83.16
2019-05-28T12:53:53.888Z,83.64
2019-05-28T12:54:49.978Z,83.8
2019-05-28T12:55:49.999Z,83.7